createdAt,value
2018-10-12T00:00:33.506Z,8.40
2018-10-12T00:01:33.481Z,8.36
2018-10-12T00:02:33.425Z,8.37
2018-10-12T00:03:33.393Z,8.43
2018-10-12T00:04:33.344Z,8.34
2018-10-12T00:05:33.304Z,8.36
2018-10-12T00:06:33.284Z,8.34
2018-10-12T00:07:33.243Z,8.40
2018-10-12T00:08:33.249Z,8.30
2018-10-12T00:09:33.156Z,8.34
2018-10-12T00:10:33.113Z,8.40
2018-10-12T00:11:33.082Z,8.30
2018-10-12T00:12:33.019Z,8.25
2018-10-12T00:13:32.982Z,8.48
2018-10-12T00:14:32.929Z,8.41
2018-10-12T00:15:32.898Z,8.45
2018-10-12T00:16:32.873Z,8.37
2018-10-12T00:17:32.825Z,8.48
2018-10-12T00:18:32.799Z,8.61
2018-10-12T00:19:32.745Z,8.50
2018-10-12T00:20:32.697Z,8.41
2018-10-12T00:21:32.682Z,8.50
2018-10-12T00:22:32.626Z,8.53
2018-10-12T00:25:04.445Z,8.59
2018-10-12T00:26:04.352Z,8.66
2018-10-12T00:27:57.412Z,8.76
2018-10-12T00:28:57.309Z,8.65
2018-10-12T00:30:51.928Z,8.81
2018-10-12T00:31:51.812Z,8.89
2018-10-12T00:33:44.884Z,8.81
2018-10-12T00:34:44.777Z,8.96
2018-10-12T00:36:37.808Z,9.17
2018-10-12T00:37:37.734Z,9.11
2018-10-12T00:38:37.672Z,8.99
2018-10-12T00:39:37.652Z,9.10
2018-10-12T00:40:37.594Z,9.17
2018-10-12T00:41:37.564Z,9.20
2018-10-12T00:42:37.518Z,9.14
2018-10-12T00:43:37.462Z,9.13
2018-10-12T00:44:37.444Z,9.32
2018-10-12T00:45:37.392Z,9.40
2018-10-12T00:46:37.345Z,9.29
2018-10-12T00:47:37.305Z,9.23
2018-10-12T00:48:37.286Z,9.23
2018-10-12T00:49:37.227Z,9.32
2018-10-12T00:50:37.194Z,9.31
2018-10-12T00:51:37.151Z,9.24
2018-10-12T00:52:37.134Z,9.26
2018-10-12T00:53:37.065Z,9.36
2018-10-12T00:54:37.038Z,9.39
2018-10-12T00:55:36.983Z,9.33
2018-10-12T00:56:36.959Z,9.17
2018-10-12T00:57:36.936Z,9.18
2018-10-12T00:58:36.865Z,9.14
2018-10-12T00:59:36.826Z,9.13
2018-10-12T01:00:36.838Z,9.14
2018-10-12T01:01:36.747Z,9.08
2018-10-12T01:02:36.695Z,9.17
2018-10-12T01:03:36.671Z,9.04
2018-10-12T01:04:36.637Z,9.08
2018-10-12T01:05:36.604Z,9.11
2018-10-12T01:06:36.547Z,9.26
2018-10-12T01:07:36.598Z,9.21
2018-10-12T01:08:36.460Z,9.29
2018-10-12T01:09:36.438Z,9.18
2018-10-12T01:10:36.407Z,9.18
2018-10-12T01:11:36.341Z,9.21
2018-10-12T01:12:36.325Z,9.20
2018-10-12T01:13:36.257Z,9.32
2018-10-12T01:14:36.246Z,9.33
2018-10-12T01:15:36.194Z,9.35
2018-10-12T01:16:36.166Z,9.38
2018-10-12T01:17:36.122Z,9.39
2018-10-12T01:18:36.059Z,9.42
2018-10-12T01:19:36.040Z,9.38
2018-10-12T01:20:36.016Z,9.33
2018-10-12T01:21:35.971Z,9.39
2018-10-12T01:22:35.920Z,9.47
2018-10-12T01:23:35.872Z,9.48
2018-10-12T01:24:35.828Z,9.42
2018-10-12T01:25:35.789Z,9.58
2018-10-12T01:26:35.757Z,9.61
2018-10-12T01:27:35.718Z,9.56
2018-10-12T01:28:35.687Z,9.71
2018-10-12T01:29:35.633Z,9.71
2018-10-12T01:30:35.589Z,9.58
2018-10-12T01:31:35.540Z,9.61
2018-10-12T01:32:35.543Z,9.50
2018-10-12T01:33:35.471Z,9.56
2018-10-12T01:34:35.444Z,9.69
2018-10-12T01:35:35.395Z,9.69
2018-10-12T01:36:35.363Z,9.66
2018-10-12T01:37:35.308Z,9.66
2018-10-12T01:38:35.279Z,9.68
2018-10-12T01:39:35.243Z,9.86
2018-10-12T01:40:35.187Z,9.84
2018-10-12T01:41:35.175Z,9.87
2018-10-12T01:42:35.113Z,9.75
2018-10-12T01:43:35.095Z,9.78
2018-10-12T01:44:35.044Z,9.83
2018-10-12T01:45:35.013Z,9.79
2018-10-12T01:46:34.962Z,9.76
2018-10-12T01:47:34.920Z,9.83
2018-10-12T01:48:34.874Z,9.78
2018-10-12T01:49:34.854Z,9.79
2018-10-12T01:50:34.798Z,9.81
2018-10-12T01:51:34.759Z,9.78
2018-10-12T01:52:34.719Z,9.93
2018-10-12T01:53:34.677Z,9.90
2018-10-12T01:54:34.652Z,9.84
2018-10-12T01:55:34.604Z,9.90
2018-10-12T01:56:34.559Z,9.93
2018-10-12T01:57:34.526Z,9.96
2018-10-12T01:58:34.471Z,9.90
2018-10-12T01:59:34.447Z,9.99
2018-10-12T02:00:34.395Z,9.97
2018-10-12T02:01:34.365Z,9.99
2018-10-12T02:02:34.353Z,9.99
2018-10-12T02:03:34.297Z,10.12
2018-10-12T02:04:34.246Z,10.01
2018-10-12T02:05:34.205Z,9.96
2018-10-12T02:06:34.160Z,10.11
2018-10-12T02:07:34.123Z,10.05
2018-10-12T02:08:34.081Z,10.11
2018-10-12T02:09:34.045Z,10.15
2018-10-12T02:10:34.013Z,10.23
2018-10-12T02:11:33.971Z,10.17
2018-10-12T02:12:33.935Z,10.17
2018-10-12T02:13:33.910Z,10.20
2018-10-12T02:14:33.849Z,10.18
2018-10-12T02:15:33.813Z,10.26
2018-10-12T02:16:33.777Z,10.30
2018-10-12T02:17:33.750Z,10.27
2018-10-12T02:18:33.702Z,10.36
2018-10-12T02:19:33.669Z,10.26
2018-10-12T02:20:33.628Z,10.41
2018-10-12T02:21:33.582Z,10.42
2018-10-12T02:22:33.528Z,10.44
2018-10-12T02:23:33.493Z,10.56
2018-10-12T02:24:33.458Z,10.61
2018-10-12T02:25:33.428Z,10.52
2018-10-12T02:26:33.381Z,10.59
2018-10-12T02:27:33.383Z,10.60
2018-10-12T02:28:33.329Z,10.59
2018-10-12T02:29:33.283Z,10.56
2018-10-12T02:30:33.225Z,10.53
2018-10-12T02:31:33.176Z,10.56
2018-10-12T02:32:33.138Z,10.56
2018-10-12T02:33:33.102Z,10.56
2018-10-12T02:34:33.079Z,10.61
2018-10-12T02:35:33.038Z,10.61
2018-10-12T02:36:32.987Z,10.73
2018-10-12T02:37:32.987Z,10.68
2018-10-12T02:38:32.933Z,10.84
2018-10-12T02:39:32.887Z,10.79
2018-10-12T02:40:32.857Z,10.76
2018-10-12T02:41:32.807Z,10.82
2018-10-12T02:42:32.777Z,10.91
2018-10-12T02:43:32.716Z,10.86
2018-10-12T02:44:32.691Z,10.86
2018-10-12T02:45:32.642Z,10.92
2018-10-12T02:46:32.615Z,10.94
2018-10-12T02:47:32.575Z,10.97
2018-10-12T02:48:32.521Z,11.00
2018-10-12T02:49:32.492Z,10.97
2018-10-12T02:50:32.448Z,10.97
2018-10-12T02:51:32.406Z,11.00
2018-10-12T02:52:32.377Z,11.07
2018-10-12T02:53:32.331Z,11.06
2018-10-12T02:54:32.293Z,11.03
2018-10-12T02:55:32.321Z,11.14
2018-10-12T02:56:32.219Z,11.11
2018-10-12T02:57:32.167Z,11.07
2018-10-12T02:58:32.131Z,11.14
2018-10-12T02:59:32.117Z,11.10
2018-10-12T03:00:32.108Z,11.21
2018-10-12T03:01:32.023Z,11.18
2018-10-12T03:02:31.982Z,11.19
2018-10-12T03:03:31.956Z,11.21
2018-10-12T03:04:31.911Z,11.22
2018-10-12T03:05:31.859Z,11.22
2018-10-12T03:06:31.826Z,11.29
2018-10-12T03:07:31.816Z,11.40
2018-10-12T03:08:31.749Z,11.29
2018-10-12T03:09:31.723Z,11.39
2018-10-12T03:10:31.694Z,11.43
2018-10-12T03:11:31.642Z,11.39
2018-10-12T03:12:31.618Z,11.36
2018-10-12T03:13:31.570Z,11.39
2018-10-12T03:14:31.550Z,11.37
2018-10-12T03:15:31.503Z,11.40
2018-10-12T03:16:31.477Z,11.37
2018-10-12T03:17:31.430Z,11.43
2018-10-12T03:18:31.441Z,11.42
2018-10-12T03:19:31.362Z,11.46
2018-10-12T03:20:31.330Z,11.44
2018-10-12T03:21:31.251Z,11.49
2018-10-12T03:22:31.241Z,11.60
2018-10-12T03:23:31.195Z,11.69
2018-10-12T03:24:31.158Z,11.75
2018-10-12T03:25:31.105Z,11.70
2018-10-12T03:26:31.081Z,11.73
2018-10-12T03:27:31.036Z,11.80
2018-10-12T03:28:31.012Z,11.75
2018-10-12T03:29:30.978Z,11.79
2018-10-12T03:30:30.925Z,11.82
2018-10-12T03:31:30.885Z,11.85
2018-10-12T03:32:30.846Z,11.95
2018-10-12T03:33:30.811Z,11.88
2018-10-12T03:34:30.780Z,11.95
2018-10-12T03:35:30.728Z,12.07
2018-10-12T03:36:30.677Z,12.09
2018-10-12T03:37:30.699Z,12.24
2018-10-12T03:38:30.630Z,12.31
2018-10-12T03:39:30.576Z,12.27
2018-10-12T03:40:30.557Z,12.37
2018-10-12T03:41:30.482Z,12.38
2018-10-12T03:42:30.458Z,12.54
2018-10-12T03:43:30.428Z,12.47
2018-10-12T03:44:30.418Z,12.62
2018-10-12T03:45:30.372Z,12.60
2018-10-12T03:46:30.361Z,12.64
2018-10-12T03:47:30.264Z,12.64
2018-10-12T03:48:30.223Z,12.50
2018-10-12T03:49:30.183Z,12.59
2018-10-12T03:50:30.160Z,12.47
2018-10-12T03:51:30.182Z,12.50
2018-10-12T03:52:30.088Z,12.65
2018-10-12T03:53:30.041Z,12.45
2018-10-12T03:54:30.003Z,12.50
2018-10-12T03:55:29.963Z,12.59
2018-10-12T03:56:29.919Z,12.47
2018-10-12T03:57:29.880Z,12.47
2018-10-12T03:58:29.859Z,12.56
2018-10-12T03:59:29.811Z,12.54
2018-10-12T04:00:29.777Z,12.53
2018-10-12T04:01:29.731Z,12.45
2018-10-12T04:02:29.725Z,12.41
2018-10-12T04:03:29.659Z,12.46
2018-10-12T04:04:29.632Z,12.41
2018-10-12T04:05:29.608Z,12.54
2018-10-12T04:06:29.539Z,12.70
2018-10-12T04:07:29.519Z,12.64
2018-10-12T04:08:29.469Z,12.67
2018-10-12T04:09:29.440Z,12.60
2018-10-12T04:10:29.400Z,12.65
2018-10-12T04:11:29.365Z,12.65
2018-10-12T04:12:29.320Z,12.65
2018-10-12T04:13:29.327Z,12.74
2018-10-12T04:14:29.253Z,12.74
2018-10-12T04:15:29.206Z,12.64
2018-10-12T04:16:29.180Z,12.65
2018-10-12T04:17:29.155Z,12.75
2018-10-12T04:18:29.095Z,12.68
2018-10-12T04:19:29.064Z,12.60
2018-10-12T04:20:29.018Z,12.72
2018-10-12T04:21:28.981Z,12.65
2018-10-12T04:22:28.948Z,12.62
2018-10-12T04:23:28.907Z,12.65
2018-10-12T04:24:28.870Z,12.56
2018-10-12T04:25:28.845Z,12.65
2018-10-12T04:26:28.786Z,12.65
2018-10-12T04:27:28.764Z,12.62
2018-10-12T04:28:28.730Z,12.59
2018-10-12T04:29:28.678Z,12.65
2018-10-12T04:30:28.660Z,12.67
2018-10-12T04:31:28.607Z,12.46
2018-10-12T04:32:28.570Z,12.46
2018-10-12T04:33:28.528Z,12.41
2018-10-12T04:34:28.494Z,12.50
2018-10-12T04:35:28.461Z,12.39
2018-10-12T04:36:28.424Z,12.38
2018-10-12T04:37:28.392Z,12.28
2018-10-12T04:38:28.348Z,12.24
2018-10-12T04:39:28.354Z,12.07
2018-10-12T04:40:28.257Z,12.14
2018-10-12T04:41:28.231Z,12.10
2018-10-12T04:42:29.721Z,12.17
2018-10-12T04:43:28.159Z,12.31
2018-10-12T04:44:28.141Z,12.39
2018-10-12T04:45:28.075Z,12.37
2018-10-12T04:46:28.069Z,12.24
2018-10-12T04:47:28.006Z,12.23
2018-10-12T04:48:27.998Z,12.14
2018-10-12T04:49:27.926Z,12.07
2018-10-12T04:50:27.917Z,12.12
2018-10-12T04:51:27.880Z,11.90
2018-10-12T04:52:27.826Z,11.91
2018-10-12T04:53:27.795Z,11.90
2018-10-12T04:54:27.749Z,11.78
2018-10-12T04:55:27.721Z,11.78
2018-10-12T04:56:27.678Z,11.86
2018-10-12T04:57:27.646Z,11.75
2018-10-12T04:58:27.604Z,11.76
2018-10-12T04:59:27.553Z,11.69
2018-10-12T05:00:27.519Z,11.64
2018-10-12T05:01:27.475Z,11.64
2018-10-12T05:02:27.443Z,11.62
2018-10-12T05:03:27.421Z,11.65
2018-10-12T05:04:27.365Z,11.70
2018-10-12T05:05:27.345Z,11.73
2018-10-12T05:06:27.303Z,11.70
2018-10-12T05:07:27.257Z,11.72
2018-10-12T05:08:27.222Z,11.69
2018-10-12T05:09:27.202Z,11.64
2018-10-12T05:10:27.143Z,11.72
2018-10-12T05:11:27.118Z,11.78
2018-10-12T05:12:27.075Z,11.76
2018-10-12T05:13:27.032Z,11.82
2018-10-12T05:14:26.979Z,11.85
2018-10-12T05:15:27.643Z,11.75
2018-10-12T05:16:26.917Z,11.79
2018-10-12T05:17:26.865Z,11.80
2018-10-12T05:18:26.839Z,11.72
2018-10-12T05:19:26.829Z,11.72
2018-10-12T05:20:26.758Z,11.65
2018-10-12T05:21:26.734Z,11.65
2018-10-12T05:22:26.687Z,11.62
2018-10-12T05:23:26.642Z,11.67
2018-10-12T05:24:26.616Z,11.75
2018-10-12T05:25:26.595Z,11.75
2018-10-12T05:26:26.549Z,11.75
2018-10-12T05:27:26.517Z,11.65
2018-10-12T05:28:26.461Z,11.69
2018-10-12T05:29:26.427Z,11.70
2018-10-12T05:30:26.378Z,11.64
2018-10-12T05:31:26.344Z,11.64
2018-10-12T05:32:26.308Z,11.62
2018-10-12T05:33:26.276Z,11.64
2018-10-12T05:34:26.221Z,11.69
2018-10-12T05:35:26.193Z,11.76
2018-10-12T05:36:26.160Z,11.75
2018-10-12T05:37:26.129Z,11.70
2018-10-12T05:38:26.083Z,11.75
2018-10-12T05:39:26.046Z,11.76
2018-10-12T05:40:26.004Z,11.76
2018-10-12T05:41:25.958Z,11.70
2018-10-12T05:42:25.924Z,11.64
2018-10-12T05:43:26.021Z,11.67
2018-10-12T05:44:25.854Z,11.70
2018-10-12T05:45:25.824Z,11.70
2018-10-12T05:46:25.786Z,11.64
2018-10-12T05:47:25.745Z,11.61
2018-10-12T05:48:25.702Z,11.61
2018-10-12T05:49:25.673Z,11.43
2018-10-12T05:50:25.628Z,11.52
2018-10-12T05:51:25.621Z,11.44
2018-10-12T05:52:25.599Z,11.37
2018-10-12T05:53:25.516Z,11.35
2018-10-12T05:54:25.476Z,11.29
2018-10-12T05:55:25.457Z,11.21
2018-10-12T05:56:25.399Z,11.19
2018-10-12T05:57:25.361Z,11.22
2018-10-12T05:58:25.366Z,11.21
2018-10-12T05:59:25.322Z,11.17
2018-10-12T06:00:25.280Z,11.22
2018-10-12T06:01:25.314Z,11.19
2018-10-12T06:02:25.191Z,11.15
2018-10-12T06:03:25.156Z,11.21
2018-10-12T06:04:25.105Z,11.21
2018-10-12T06:05:25.066Z,11.09
2018-10-12T06:06:25.042Z,10.99
2018-10-12T06:07:25.000Z,11.03
2018-10-12T06:08:24.976Z,10.99
2018-10-12T06:09:24.996Z,10.96
2018-10-12T06:10:24.924Z,10.86
2018-10-12T06:11:24.898Z,10.88
2018-10-12T06:12:24.936Z,10.85
2018-10-12T06:13:24.768Z,10.91
2018-10-12T06:14:24.721Z,10.86
2018-10-12T06:15:24.707Z,10.76
2018-10-12T06:16:24.668Z,10.82
2018-10-12T06:17:24.612Z,10.82
2018-10-12T06:18:24.574Z,10.76
2018-10-12T06:19:24.549Z,10.82
2018-10-12T06:20:24.551Z,10.81
2018-10-12T06:21:24.498Z,10.82
2018-10-12T06:22:24.419Z,10.82
2018-10-12T06:23:24.416Z,10.64
2018-10-12T06:24:24.361Z,10.66
2018-10-12T06:25:24.312Z,10.61
2018-10-12T06:26:24.272Z,10.81
2018-10-12T06:27:24.249Z,10.78
2018-10-12T06:28:24.190Z,10.81
2018-10-12T06:29:24.150Z,10.73
2018-10-12T06:30:24.141Z,10.79
2018-10-12T06:31:24.107Z,10.82
2018-10-12T06:32:24.053Z,10.82
2018-10-12T06:33:24.020Z,10.82
2018-10-12T06:34:23.962Z,10.91
2018-10-12T06:35:23.912Z,10.89
2018-10-12T06:36:23.891Z,10.99
2018-10-12T06:37:23.862Z,10.97
2018-10-12T06:38:23.802Z,11.00
2018-10-12T06:39:23.772Z,11.06
2018-10-12T06:40:23.731Z,11.07
2018-10-12T06:41:23.755Z,11.07
2018-10-12T06:42:23.638Z,11.14
2018-10-12T06:43:23.629Z,11.09
2018-10-12T06:44:23.581Z,11.06
2018-10-12T06:45:23.546Z,11.10
2018-10-12T06:46:23.581Z,11.07
2018-10-12T06:47:23.483Z,11.15
2018-10-12T06:48:23.428Z,11.17
2018-10-12T06:49:23.400Z,11.28
2018-10-12T06:50:23.353Z,11.43
2018-10-12T06:51:23.323Z,11.58
2018-10-12T06:52:23.265Z,11.69
2018-10-12T06:53:23.229Z,12.19
2018-10-12T06:54:23.191Z,13.04
2018-10-12T06:55:23.156Z,13.96
2018-10-12T06:56:23.126Z,14.83
2018-10-12T06:57:23.109Z,15.44
2018-10-12T06:58:23.057Z,15.93
2018-10-12T06:59:23.024Z,16.41
2018-10-12T07:00:22.987Z,16.86
2018-10-12T07:01:22.955Z,17.40
2018-10-12T07:02:22.897Z,17.97
2018-10-12T07:03:23.140Z,18.32
2018-10-12T07:04:22.844Z,18.73
2018-10-12T07:05:22.822Z,18.75
2018-10-12T07:06:22.780Z,18.76
2018-10-12T07:07:22.749Z,18.81
2018-10-12T07:08:22.708Z,19.13
2018-10-12T07:09:22.668Z,19.76
2018-10-12T07:10:22.629Z,20.01
2018-10-12T07:11:22.604Z,20.26
2018-10-12T07:12:22.592Z,20.52
2018-10-12T07:13:22.540Z,20.80
2018-10-12T07:14:22.498Z,20.91
2018-10-12T07:15:22.480Z,21.24
2018-10-12T07:16:22.451Z,21.42
2018-10-12T07:17:22.406Z,21.59
2018-10-12T07:18:22.399Z,21.80
2018-10-12T07:19:22.371Z,21.49
2018-10-12T07:20:22.329Z,21.44
2018-10-12T07:21:22.301Z,21.44
2018-10-12T07:22:22.270Z,21.67
2018-10-12T07:23:22.235Z,21.86
2018-10-12T07:24:22.212Z,21.90
2018-10-12T07:25:22.188Z,21.79
2018-10-12T07:26:22.147Z,21.80
2018-10-12T07:27:22.135Z,21.64
2018-10-12T07:28:22.097Z,21.37
2018-10-12T07:29:22.117Z,20.89
2018-10-12T07:30:22.042Z,21.09
2018-10-12T07:31:22.063Z,21.21
2018-10-12T07:32:22.027Z,21.03
2018-10-12T07:33:21.955Z,20.66
2018-10-12T07:34:21.920Z,20.29
2018-10-12T07:35:21.891Z,20.08
2018-10-12T07:36:21.856Z,19.84
2018-10-12T07:37:21.849Z,19.71
2018-10-12T07:38:22.008Z,19.58
2018-10-12T07:39:21.790Z,19.73
2018-10-12T07:40:21.744Z,19.95
2018-10-12T07:41:21.724Z,20.10
2018-10-12T07:42:21.724Z,20.64
2018-10-12T07:43:21.724Z,20.91
2018-10-12T07:44:21.649Z,20.88
2018-10-12T07:45:21.614Z,20.79
2018-10-12T07:46:21.614Z,20.51
2018-10-12T07:47:21.590Z,20.17
2018-10-12T07:48:21.590Z,19.94
2018-10-12T07:49:22.638Z,19.78
2018-10-12T07:50:21.469Z,19.41
2018-10-12T07:51:21.547Z,19.36
2018-10-12T07:52:21.436Z,19.46
2018-10-12T07:53:21.597Z,19.87
2018-10-12T07:54:21.387Z,20.32
2018-10-12T07:55:21.359Z,20.74
2018-10-12T07:56:21.323Z,21.32
2018-10-12T07:57:21.279Z,21.56
2018-10-12T07:58:21.270Z,21.68
2018-10-12T07:59:21.233Z,21.59
2018-10-12T08:00:21.314Z,21.54
2018-10-12T08:01:21.181Z,21.34
2018-10-12T08:02:21.149Z,21.37
2018-10-12T08:03:21.125Z,21.38
2018-10-12T08:04:21.102Z,21.14
2018-10-12T08:05:21.089Z,21.07
2018-10-12T08:06:21.150Z,21.06
2018-10-12T08:07:21.014Z,20.76
2018-10-12T08:08:20.984Z,20.82
2018-10-12T08:09:20.963Z,20.64
2018-10-12T08:10:20.935Z,20.74
2018-10-12T08:11:20.908Z,20.94
2018-10-12T08:12:20.883Z,21.03
2018-10-12T08:13:20.852Z,20.98
2018-10-12T08:14:20.864Z,20.97
2018-10-12T08:15:20.800Z,21.01
2018-10-12T08:16:20.810Z,20.88
2018-10-12T08:17:20.768Z,20.91
2018-10-12T08:18:20.765Z,21.06
2018-10-12T08:19:20.688Z,21.38
2018-10-12T08:20:20.711Z,21.61
2018-10-12T08:21:20.688Z,21.90
2018-10-12T08:22:20.629Z,22.09
2018-10-12T08:23:20.590Z,22.33
2018-10-12T08:24:20.583Z,22.39
2018-10-12T08:25:20.530Z,22.36
2018-10-12T08:26:20.506Z,22.46
2018-10-12T08:27:20.476Z,22.64
2018-10-12T08:28:20.474Z,22.67
2018-10-12T08:29:20.415Z,22.55
2018-10-12T08:30:20.414Z,22.61
2018-10-12T08:31:20.392Z,22.70
2018-10-12T08:32:20.355Z,22.65
2018-10-12T08:33:20.316Z,22.86
2018-10-12T08:34:20.291Z,22.88
2018-10-12T08:35:20.265Z,23.20
2018-10-12T08:36:20.267Z,23.55
2018-10-12T08:37:20.273Z,23.93
2018-10-12T08:38:20.186Z,24.34
2018-10-12T08:39:20.152Z,24.52
2018-10-12T08:40:20.126Z,24.65
2018-10-12T08:41:20.090Z,24.88
2018-10-12T08:42:20.069Z,25.02
2018-10-12T08:43:20.046Z,25.42
2018-10-12T08:44:20.027Z,25.61
2018-10-12T08:45:20.014Z,25.95
2018-10-12T08:46:19.977Z,26.13
2018-10-12T08:47:19.939Z,26.30
2018-10-12T08:48:19.940Z,26.36
2018-10-12T08:49:19.922Z,26.55
2018-10-12T08:50:19.872Z,26.60
2018-10-12T08:51:19.852Z,26.95
2018-10-12T08:52:19.834Z,27.37
2018-10-12T08:53:19.801Z,27.74
2018-10-12T08:54:19.783Z,28.09
2018-10-12T08:55:19.845Z,28.37
2018-10-12T08:56:19.835Z,29.15
2018-10-12T08:57:19.746Z,29.73
2018-10-12T08:58:19.702Z,30.11
2018-10-12T08:59:19.683Z,30.19
2018-10-12T09:00:19.663Z,30.02
2018-10-12T09:01:19.629Z,29.82
2018-10-12T09:02:19.609Z,29.73
2018-10-12T09:03:19.593Z,29.36
2018-10-12T09:04:19.565Z,29.19
2018-10-12T09:05:19.546Z,29.12
2018-10-12T09:06:19.525Z,29.08
2018-10-12T09:07:19.488Z,28.33
2018-10-12T09:08:19.489Z,28.62
2018-10-12T09:09:19.452Z,28.86
2018-10-12T09:10:19.450Z,29.06
2018-10-12T09:11:19.424Z,29.16
2018-10-12T09:12:19.411Z,29.11
2018-10-12T09:13:19.492Z,29.21
2018-10-12T09:14:19.367Z,29.52
2018-10-12T09:15:19.349Z,30.10
2018-10-12T09:16:19.369Z,30.49
2018-10-12T09:17:19.314Z,30.11
2018-10-12T09:18:19.335Z,30.38
2018-10-12T09:19:19.294Z,30.32
2018-10-12T09:20:19.387Z,29.74
2018-10-12T09:21:19.231Z,29.83
2018-10-12T09:22:19.310Z,29.90
2018-10-12T09:23:19.194Z,29.30
2018-10-12T09:24:19.172Z,29.48
2018-10-12T09:25:19.179Z,29.98
2018-10-12T09:26:19.137Z,30.70
2018-10-12T09:27:19.166Z,30.97
2018-10-12T09:28:19.115Z,30.70
2018-10-12T09:29:19.146Z,30.57
2018-10-12T09:30:19.128Z,30.38
2018-10-12T09:31:19.038Z,30.67
2018-10-12T09:32:19.059Z,30.60
2018-10-12T09:33:19.004Z,30.47
2018-10-12T09:34:19.005Z,30.23
2018-10-12T09:35:18.977Z,30.02
2018-10-12T09:36:18.960Z,30.26
2018-10-12T09:37:18.948Z,30.43
2018-10-12T09:38:18.927Z,31.06
2018-10-12T09:39:18.905Z,31.13
2018-10-12T09:40:18.906Z,31.43
2018-10-12T09:41:18.873Z,31.07
2018-10-12T09:42:18.855Z,30.89
2018-10-12T09:43:18.839Z,31.13
2018-10-12T09:44:18.821Z,31.46
2018-10-12T09:45:18.830Z,31.69
2018-10-12T09:46:18.790Z,31.13
2018-10-12T09:47:18.760Z,31.34
2018-10-12T09:48:18.747Z,31.58
2018-10-12T09:49:18.739Z,31.70
2018-10-12T09:50:18.730Z,32.00
2018-10-12T09:51:18.698Z,32.15
2018-10-12T09:52:18.712Z,32.22
2018-10-12T09:53:18.657Z,32.10
2018-10-12T09:54:18.693Z,31.56
2018-10-12T09:55:18.641Z,31.31
2018-10-12T09:56:18.617Z,31.48
2018-10-12T09:57:18.595Z,31.65
2018-10-12T09:58:18.603Z,32.22
2018-10-12T09:59:18.564Z,32.21
2018-10-12T10:00:18.558Z,31.80
2018-10-12T10:01:18.533Z,30.95
2018-10-12T10:02:18.722Z,30.60
2018-10-12T10:03:18.502Z,30.27
2018-10-12T10:04:18.477Z,30.80
2018-10-12T10:05:18.474Z,31.43
2018-10-12T10:06:18.454Z,31.50
2018-10-12T10:07:18.424Z,31.80
2018-10-12T10:08:18.533Z,31.84
2018-10-12T10:09:18.397Z,31.58
2018-10-12T10:10:18.383Z,31.43
2018-10-12T10:11:18.359Z,30.89
2018-10-12T10:12:18.349Z,30.91
2018-10-12T10:13:18.329Z,31.12
2018-10-12T10:14:18.324Z,31.46
2018-10-12T10:15:18.300Z,30.84
2018-10-12T10:16:18.284Z,30.15
2018-10-12T10:17:18.287Z,30.02
2018-10-12T10:18:18.261Z,29.70
2018-10-12T10:19:18.257Z,29.65
2018-10-12T10:20:18.342Z,30.10
2018-10-12T10:21:18.196Z,30.04
2018-10-12T10:22:18.228Z,30.77
2018-10-12T10:23:18.560Z,31.26
2018-10-12T10:24:18.157Z,31.10
2018-10-12T10:25:18.142Z,30.99
2018-10-12T10:26:18.112Z,31.06
2018-10-12T10:27:18.096Z,31.23
2018-10-12T10:28:18.092Z,31.09
2018-10-12T10:29:18.105Z,31.26
2018-10-12T10:30:18.061Z,31.32
2018-10-12T10:31:18.034Z,31.80
2018-10-12T10:32:18.084Z,32.14
2018-10-12T10:33:18.008Z,32.25
2018-10-12T10:34:17.982Z,32.13
2018-10-12T10:35:17.965Z,31.76
2018-10-12T10:36:17.957Z,31.69
2018-10-12T10:37:17.928Z,31.76
2018-10-12T10:38:17.909Z,32.01
2018-10-12T10:39:17.888Z,32.18
2018-10-12T10:40:17.882Z,31.93
2018-10-12T10:41:17.862Z,31.38
2018-10-12T10:42:17.852Z,31.51
2018-10-12T10:43:17.826Z,31.44
2018-10-12T10:44:17.816Z,31.57
2018-10-12T10:45:17.797Z,31.51
2018-10-12T10:46:17.828Z,31.31
2018-10-12T10:47:17.768Z,31.12
2018-10-12T10:48:17.750Z,31.47
2018-10-12T10:49:17.737Z,31.13
2018-10-12T10:50:17.717Z,31.04
2018-10-12T10:51:17.701Z,31.47
2018-10-12T10:52:17.685Z,31.78
2018-10-12T10:53:17.672Z,32.06
2018-10-12T10:54:17.678Z,32.25
2018-10-12T10:55:17.637Z,32.60
2018-10-12T10:56:17.632Z,32.35
2018-10-12T10:57:17.632Z,32.37
2018-10-12T10:58:17.591Z,31.70
2018-10-12T10:59:17.559Z,31.47
2018-10-12T11:00:17.572Z,31.43
2018-10-12T11:01:17.535Z,31.65
2018-10-12T11:02:17.511Z,31.95
2018-10-12T11:03:17.490Z,31.81
2018-10-12T11:04:17.481Z,31.51
2018-10-12T11:05:17.466Z,31.35
2018-10-12T11:06:17.476Z,31.09
2018-10-12T11:07:17.429Z,30.72
2018-10-12T11:08:17.432Z,31.10
2018-10-12T11:09:17.397Z,30.80
2018-10-12T11:10:17.384Z,30.62
2018-10-12T11:11:17.360Z,30.70
2018-10-12T11:12:17.407Z,31.13
2018-10-12T11:13:17.343Z,30.69
2018-10-12T11:14:17.316Z,30.54
2018-10-12T11:15:17.380Z,30.72
2018-10-12T11:16:17.307Z,30.70
2018-10-12T11:17:17.255Z,30.98
2018-10-12T11:18:17.293Z,30.86
2018-10-12T11:19:17.224Z,30.99
2018-10-12T11:20:17.225Z,31.23
2018-10-12T11:21:17.212Z,31.51
2018-10-12T11:22:17.165Z,31.66
2018-10-12T11:23:17.194Z,32.00
2018-10-12T11:24:17.155Z,32.22
2018-10-12T11:25:17.135Z,32.25
2018-10-12T11:26:17.136Z,32.07
2018-10-12T11:27:17.089Z,32.03
2018-10-12T11:28:17.159Z,31.69
2018-10-12T11:29:17.061Z,30.98
2018-10-12T11:30:17.193Z,30.88
2018-10-12T11:31:17.018Z,30.60
2018-10-12T11:32:16.992Z,30.13
2018-10-12T11:33:16.970Z,29.89
2018-10-12T11:34:16.959Z,29.95
2018-10-12T11:35:16.941Z,30.42
2018-10-12T11:36:16.918Z,30.61
2018-10-12T11:37:16.912Z,30.80
2018-10-12T11:38:16.904Z,30.76
2018-10-12T11:39:16.878Z,30.65
2018-10-12T11:40:16.850Z,30.69
2018-10-12T11:41:16.842Z,30.84
2018-10-12T11:42:16.812Z,31.13
2018-10-12T11:43:16.802Z,31.44
2018-10-12T11:44:16.774Z,31.41
2018-10-12T11:45:16.778Z,31.10
2018-10-12T11:46:16.734Z,30.83
2018-10-12T11:47:16.754Z,30.60
2018-10-12T11:48:16.712Z,30.57
2018-10-12T11:49:16.692Z,30.45
2018-10-12T11:50:16.690Z,30.57
2018-10-12T11:51:16.663Z,29.98
2018-10-12T11:52:16.747Z,29.85
2018-10-12T11:53:16.617Z,29.89
2018-10-12T11:54:16.606Z,30.13
2018-10-12T11:55:16.655Z,30.05
2018-10-12T11:56:16.575Z,30.19
2018-10-12T11:57:16.575Z,30.46
2018-10-12T11:58:16.569Z,30.73
2018-10-12T11:59:16.518Z,30.49
2018-10-12T12:00:16.498Z,30.73
2018-10-12T12:01:16.471Z,30.62
2018-10-12T12:02:16.548Z,30.37
2018-10-12T12:03:16.469Z,30.24
2018-10-12T12:04:16.419Z,29.86
2018-10-12T12:05:16.391Z,29.80
2018-10-12T12:06:16.378Z,29.60
2018-10-12T12:07:16.459Z,29.87
2018-10-12T12:08:16.337Z,29.74
2018-10-12T12:09:16.321Z,29.63
2018-10-12T12:10:16.318Z,29.18
2018-10-12T12:11:16.296Z,29.08
2018-10-12T12:12:16.262Z,29.28
2018-10-12T12:13:16.243Z,29.45
2018-10-12T12:14:16.226Z,29.67
2018-10-12T12:15:16.215Z,29.65
2018-10-12T12:16:16.202Z,29.67
2018-10-12T12:17:16.162Z,29.51
2018-10-12T12:18:16.166Z,29.61
2018-10-12T12:19:16.182Z,29.65
2018-10-12T12:20:16.130Z,29.64
2018-10-12T12:21:16.093Z,29.73
2018-10-12T12:22:16.076Z,29.82
2018-10-12T12:23:16.082Z,29.87
2018-10-12T12:24:16.035Z,30.05
2018-10-12T12:25:16.014Z,30.53
2018-10-12T12:26:16.018Z,30.53
2018-10-12T12:27:15.993Z,30.54
2018-10-12T12:28:16.018Z,29.92
2018-10-12T12:29:15.937Z,29.74
2018-10-12T12:30:15.923Z,29.73
2018-10-12T12:31:15.897Z,29.86
2018-10-12T12:32:15.901Z,29.82
2018-10-12T12:33:15.859Z,29.71
2018-10-12T12:34:15.849Z,29.65
2018-10-12T12:35:16.079Z,29.83
2018-10-12T12:36:16.041Z,30.02
2018-10-12T12:37:15.779Z,30.13
2018-10-12T12:38:15.749Z,30.02
2018-10-12T12:39:15.749Z,29.78
2018-10-12T12:40:15.712Z,29.70
2018-10-12T12:41:15.704Z,29.60
2018-10-12T12:42:15.674Z,29.51
2018-10-12T12:43:15.659Z,29.33
2018-10-12T12:44:15.637Z,29.19
2018-10-12T12:45:15.629Z,29.16
2018-10-12T12:46:15.592Z,29.11
2018-10-12T12:47:15.644Z,29.05
2018-10-12T12:48:15.860Z,28.96
2018-10-12T12:49:15.898Z,28.88
2018-10-12T12:50:15.539Z,28.68
2018-10-12T12:51:15.498Z,28.55
2018-10-12T12:52:15.479Z,28.34
2018-10-12T12:53:15.476Z,28.12
2018-10-12T12:54:15.443Z,27.99
2018-10-12T12:55:15.438Z,27.74
2018-10-12T12:56:15.397Z,27.81
2018-10-12T12:57:15.399Z,27.47
2018-10-12T12:58:15.351Z,27.29
2018-10-12T12:59:15.331Z,27.49
2018-10-12T13:00:15.375Z,27.63
2018-10-12T13:01:15.320Z,27.93